Terminal Aerodrome Forecast
Issued by NWS Missoula, MT

Home | Current Version | Previous Version | Text Only | Print | Product List | Glossary On
Versions: 1 2 3 4 5 6 7 8 9 10 11 12 13 14 15 16 17 18 19 20 21 22 23 24 25 26 27 28 29
000
FTUS45 KMSO 240752 AAA
TAFBTM
TAF AMD
KBTM 240752Z 2408/2506 28007KT P6SM VCSH BKN040 OVC050
      TEMPO 2408/2410 30012G18KT 3SM -SN BR BKN015 OVC050
     FM241000 30007KT P6SM VCSH SCT040 BKN070
     FM241400 30007KT P6SM SCT040 SCT070=

USA.gov is the U.S. government's official web portal to all federal, state and local government web resources and services.